Terminal Aerodrome Forecast
Issued by NWS Flagstaff, AZ

Home | Current Version | Previous Version | Text Only | Print | Product List | Glossary On
Versions: 1 2 3 4 5 6 7 8 9 10 11 12 13
000
FTUS45 KFGZ 260500
TAFINW
TAF
KINW 260535Z 2606/2706 22006KT P6SM VCSH BKN090
     FM261900 30012G20KT P6SM VCTS SCT020CB BKN040
     FM270000 31011G18KT P6SM BKN100=

USA.gov is the U.S. government's official web portal to all federal, state and local government web resources and services.